MDT,Max TemperatureF,Mean TemperatureF,Min TemperatureF,Max Dew PointF,MeanDew PointF,Min DewpointF,Max Humidity, Mean Humidity, Min Humidity, Max Sea Level PressureIn, Mean Sea Level PressureIn, Min Sea Level PressureIn, Max VisibilityMiles, Mean VisibilityMiles, Min VisibilityMiles, Max Wind SpeedMPH, Mean Wind SpeedMPH, Max Gust SpeedMPH,PrecipitationIn, CloudCover, Events, WindDirDegrees
2013-5-1,50,35,20,19,14,7,77,48,18,30.60,30.49,30.33,10,10,10,15,6,17,0.00,0,,329
2013-5-2,61,42,22,25,18,14,74,47,19,30.65,30.52,30.31,10,10,10,14,4,23,0.00,0,,310
2013-5-3,61,46,31,29,25,17,75,48,21,30.31,30.19,30.09,10,10,2,21,6,29,0.00,2,,355
2013-5-4,60,51,42,29,26,24,57,42,26,30.09,30.02,29.96,10,10,10,22,10,29,0.00,1,,33
2013-5-5,67,49,31,38,29,23,75,47,19,29.97,29.91,29.85,10,10,8,24,4,29,0.02,1,Rain,34
2013-5-6,72,53,33,35,29,21,82,49,15,29.93,29.85,29.76,10,10,10,21,5,26,0.00,0,Thunderstorm,11
2013-5-7,73,54,35,44,33,25,82,49,16,29.94,29.84,29.78,10,10,9,21,6,26,T,3,Rain,344
2013-5-8,74,58,41,44,35,24,82,49,16,30.05,29.97,29.92,10,10,10,14,5,20,0.00,2,,346
2013-5-9,75,57,39,41,35,30,85,51,17,30.12,30.08,30.04,10,10,10,18,6,24,0.00,0,,360
2013-5-10,76,58,40,39,32,24,79,47,15,30.22,30.18,30.13,10,10,10,15,5,21,0.00,0,,341
2013-5-11,78,60,41,40,36,32,76,48,20,30.23,30.18,30.12,10,10,10,14,3,20,0.00,2,,222
2013-5-12,80,62,43,43,38,30,82,50,17,30.14,30.07,29.96,10,10,10,20,5,26,0.00,0,,188
2013-5-13,78,61,43,46,40,32,83,52,20,30.01,29.97,29.84,10,10,10,30,9,38,0.00,0,,307
2013-5-14,66,52,38,41,30,12,85,50,14,30.04,29.99,29.95,10,10,10,20,6,25,0.00,1,,291
2013-5-15,66,53,39,37,35,30,82,55,28,29.99,29.92,29.83,10,10,10,16,4,22,0.00,1,,296
2013-5-16,58,50,41,41,37,34,89,65,40,29.88,29.84,29.80,10,10,10,10,4,14,0.03,6,Rain,318
2013-5-17,54,49,44,43,42,38,92,79,66,29.97,29.87,29.81,10,10,5,10,3,14,0.41,8,Rain,304
2013-5-18,56,48,39,43,38,34,92,71,50,30.08,30.01,29.94,10,10,4,13,4,17,0.28,7,Rain,330
2013-5-19,56,49,41,38,35,32,82,64,45,30.23,30.16,30.09,10,10,10,20,9,26,0.00,7,,324
2013-5-20,66,54,42,39,34,32,70,51,31,30.24,30.12,29.98,10,10,10,14,5,18,0.00,0,,339
2013-5-21,67,51,35,40,35,27,92,58,24,29.97,29.75,29.60,10,10,9,17,7,25,0.01,2,Rain,186
2013-5-22,44,36,28,39,30,11,93,60,27,29.99,29.81,29.62,10,7,1,24,6,33,0.10,7,Rain-Snow,214
2013-5-23,55,39,23,25,18,7,81,49,17,29.99,29.93,29.87,10,10,10,16,4,23,0.00,0,,299
2013-5-24,52,41,30,33,28,26,85,62,38,30.02,29.97,29.94,10,10,10,20,6,26,0.00,6,,221
2013-5-25,58,49,39,38,34,30,79,59,38,29.99,29.95,29.92,10,10,6,13,4,16,0.07,6,Rain,337
2013-5-26,57,48,39,45,38,31,83,67,51,29.97,29.93,29.88,10,10,2,16,5,21,0.07,6,Rain-Thunderstorm,41
2013-5-27,55,48,40,43,39,31,89,64,38,30.00,29.92,29.80,10,10,9,23,5,28,0.08,8,Rain,161
2013-5-28,53,46,39,43,41,37,96,84,71,29.85,29.81,29.74,10,9,3,14,4,20,0.38,8,Rain,286
2013-5-29,51,43,34,42,38,34,92,82,71,29.91,29.79,29.71,10,9,2,18,3,24,0.24,7,Rain,179
2013-5-30,53,43,33,36,34,32,100,76,52,30.11,30.00,29.94,10,8,1,17,4,21,T,5,,292
2013-5-31,60,46,32,33,29,26,89,58,27,30.25,30.20,30.15,10,10,10,16,6,22,0.00,0,,327